Time;durP1;ratioP1;P1;durP2;ratioP2;P2;SDS_P1;SDS_P2;PMS_P1;PMS_P2;Temp;Humidity;BMP_temperature;BMP_pressure;BME280_temperature;BME280_humidity;BME280_pressure;Samples;Min_cycle;Max_cycle;Signal;HPM_P1;HPM_P2
2023/10/18 00:02:16;;;;;;;7.80;4.32;;;7.20;99.90;;;;;;5041701;28;20051;-75
2023/10/18 00:04:47;;;;;;;12.70;5.72;;;7.20;99.90;;;;;;5046062;28;20083;-77
2023/10/18 00:07:15;;;;;;;8.32;4.93;;;7.10;99.90;;;;;;5042733;28;20102;-78
2023/10/18 00:09:48;;;;;;;11.73;6.28;;;7.10;99.90;;;;;;5026262;28;20431;-78
2023/10/18 00:12:18;;;;;;;13.95;6.18;;;7.10;99.90;;;;;;5047890;28;20059;-77
2023/10/18 00:14:51;;;;;;;10.20;4.93;;;7.10;99.90;;;;;;5064220;28;20048;-77
2023/10/18 00:17:17;;;;;;;11.25;6.00;;;7.10;99.90;;;;;;5041497;28;20135;-75
2023/10/18 00:19:43;;;;;;;10.15;5.65;;;7.10;99.90;;;;;;5031440;28;20123;-77
2023/10/18 00:22:09;;;;;;;10.95;6.55;;;7.10;99.90;;;;;;5043288;28;20045;-76
2023/10/18 00:24:37;;;;;;;10.38;6.30;;;7.00;99.90;;;;;;5044667;28;20044;-76
2023/10/18 00:27:03;;;;;;;11.70;5.65;;;7.00;99.90;;;;;;5042281;28;20075;-76
2023/10/18 00:29:32;;;;;;;10.27;5.28;;;6.90;99.90;;;;;;5043288;28;20586;-77
2023/10/18 00:31:59;;;;;;;12.07;6.93;;;7.00;99.90;;;;;;5044504;28;20059;-76
2023/10/18 00:34:25;;;;;;;11.70;5.97;;;6.90;99.90;;;;;;5044381;28;20063;-76
2023/10/18 00:36:51;;;;;;;14.85;7.43;;;7.00;99.90;;;;;;5043399;28;20059;-77
2023/10/18 00:39:34;;;;;;;12.50;6.18;;;6.90;99.90;;;;;;5041606;28;20486;-76
2023/10/18 00:44:50;;;;;;;11.70;6.63;;;6.90;99.90;;;;;;5043850;28;20056;-76
2023/10/18 00:47:16;;;;;;;13.70;7.35;;;6.80;99.90;;;;;;5044021;28;20048;-77
2023/10/18 00:49:43;;;;;;;15.85;8.85;;;6.80;99.90;;;;;;5040985;28;20044;-76
2023/10/18 00:52:10;;;;;;;11.88;5.90;;;6.80;99.90;;;;;;5056032;28;20460;-76
2023/10/18 00:54:38;;;;;;;11.02;6.55;;;6.80;99.90;;;;;;5043025;28;20045;-76
2023/10/18 00:57:04;;;;;;;11.95;7.38;;;6.80;99.90;;;;;;5041627;28;20044;-76
2023/10/18 00:59:30;;;;;;;17.65;8.15;;;6.80;99.90;;;;;;5058403;28;20052;-78
2023/10/18 01:02:03;;;;;;;12.90;7.50;;;6.80;99.90;;;;;;5045775;28;20052;-77
2023/10/18 01:04:34;;;;;;;16.35;9.48;;;6.80;99.90;;;;;;5044158;28;20607;-78
2023/10/18 01:07:09;;;;;;;17.52;9.52;;;6.80;99.90;;;;;;5043915;28;20058;-76
2023/10/18 01:09:34;;;;;;;17.20;8.40;;;6.80;99.90;;;;;;5047787;28;20037;-76
2023/10/18 01:12:00;;;;;;;20.10;10.50;;;6.80;99.90;;;;;;5024011;28;20393;-76
2023/10/18 01:14:27;;;;;;;16.38;9.32;;;6.80;99.90;;;;;;5045698;28;20048;-78
2023/10/18 01:16:56;;;;;;;17.95;10.50;;;6.80;99.90;;;;;;5048064;28;20436;-76
2023/10/18 01:19:22;;;;;;;19.30;10.82;;;6.70;99.90;;;;;;5029461;28;20100;-76
2023/10/18 01:21:51;;;;;;;17.23;10.50;;;6.80;99.90;;;;;;5029407;28;20135;-77
2023/10/18 01:24:18;;;;;;;20.98;10.77;;;6.70;99.90;;;;;;5049815;28;20496;-76
2023/10/18 01:26:44;;;;;;;19.15;10.02;;;6.70;99.90;;;;;;5052365;28;20791;-76
2023/10/18 01:29:10;;;;;;;15.18;9.20;;;6.70;99.90;;;;;;5046211;28;20044;-77
2023/10/18 01:31:39;;;;;;;18.65;11.65;;;6.70;99.90;;;;;;5048984;28;20404;-76
2023/10/18 01:34:05;;;;;;;17.88;10.00;;;6.70;99.90;;;;;;5058761;28;20409;-77
2023/10/18 01:36:31;;;;;;;19.38;10.80;;;6.70;99.90;;;;;;5047013;28;20045;-77
2023/10/18 01:38:58;;;;;;;17.75;10.35;;;6.70;99.90;;;;;;5031454;28;20061;-77
2023/10/18 01:41:28;;;;;;;20.05;11.07;;;6.70;99.90;;;;;;5062247;28;20071;-77
2023/10/18 01:43:56;;;;;;;17.48;10.23;;;6.70;99.90;;;;;;5047049;28;20485;-77
2023/10/18 01:46:23;;;;;;;19.67;10.23;;;6.70;99.90;;;;;;5052523;28;20086;-76
2023/10/18 01:48:50;;;;;;;20.02;11.35;;;6.60;99.90;;;;;;5048451;28;20052;-75
2023/10/18 01:51:17;;;;;;;21.00;10.65;;;6.60;99.90;;;;;;5043649;28;20076;-76
2023/10/18 01:53:43;;;;;;;18.98;10.70;;;6.70;99.90;;;;;;5042686;28;20048;-76
2023/10/18 01:56:10;;;;;;;18.65;10.02;;;6.70;99.90;;;;;;5060948;28;20060;-76
2023/10/18 01:58:36;;;;;;;18.33;9.90;;;6.70;99.90;;;;;;5042753;28;20139;-76
2023/10/18 02:01:03;;;;;;;20.48;12.07;;;6.60;99.90;;;;;;5043429;28;20041;-77
2023/10/18 02:03:29;;;;;;;17.77;9.43;;;6.60;99.90;;;;;;5025541;28;20061;-77
2023/10/18 02:05:56;;;;;;;18.85;11.52;;;6.60;99.90;;;;;;5048673;28;20048;-76
2023/10/18 02:08:22;;;;;;;22.08;11.73;;;6.60;99.90;;;;;;5046498;28;20063;-76
2023/10/18 02:10:50;;;;;;;20.48;10.35;;;7.00;99.90;;;;;;5057298;28;20033;-76
2023/10/18 02:13:15;;;;;;;18.70;10.93;;;6.50;99.90;;;;;;5061777;28;20052;-76
2023/10/18 02:15:41;;;;;;;16.45;10.73;;;6.60;99.90;;;;;;5060136;28;20037;-77
2023/10/18 02:18:08;;;;;;;18.45;11.30;;;6.50;99.90;;;;;;5029785;28;20087;-76
2023/10/18 02:20:36;;;;;;;16.80;9.18;;;6.60;99.90;;;;;;5044517;28;20503;-76
2023/10/18 02:23:02;;;;;;;22.27;11.65;;;6.50;99.90;;;;;;5044669;28;20045;-77
2023/10/18 02:28:08;;;;;;;18.02;10.30;;;6.50;99.90;;;;;;5058547;28;20052;-76
2023/10/18 02:30:36;;;;;;;16.50;9.55;;;6.50;99.90;;;;;;5059120;28;20037;-77
2023/10/18 02:33:04;;;;;;;21.02;12.00;;;6.50;99.90;;;;;;5064521;28;20408;-76
2023/10/18 02:35:31;;;;;;;16.50;10.63;;;6.50;99.90;;;;;;5040814;28;20068;-77
2023/10/18 02:38:08;;;;;;;18.65;10.75;;;6.60;99.90;;;;;;5044601;28;20053;-76
2023/10/18 02:40:38;;;;;;;18.37;10.43;;;6.50;99.90;;;;;;5045036;28;20036;-76
2023/10/18 02:43:08;;;;;;;15.95;10.13;;;6.50;99.90;;;;;;5060727;28;20382;-76
2023/10/18 02:45:34;;;;;;;17.55;11.55;;;6.50;99.90;;;;;;5043878;28;20045;-76
2023/10/18 02:48:00;;;;;;;22.52;11.32;;;6.40;99.90;;;;;;5033879;28;20483;-76
2023/10/18 02:50:27;;;;;;;18.35;10.27;;;6.40;99.90;;;;;;5047581;28;20539;-80
2023/10/18 02:52:53;;;;;;;14.15;9.38;;;6.40;99.90;;;;;;5056203;28;20037;-76
2023/10/18 02:55:19;;;;;;;17.98;11.68;;;6.40;99.90;;;;;;5025686;28;20047;-76
2023/10/18 02:57:49;;;;;;;17.55;10.15;;;6.40;99.90;;;;;;5045334;28;20047;-77
2023/10/18 03:00:18;;;;;;;19.20;11.57;;;6.40;99.90;;;;;;5044832;28;20044;-77
2023/10/18 03:02:44;;;;;;;19.02;11.88;;;6.40;99.90;;;;;;5057578;28;20051;-76
2023/10/18 03:05:11;;;;;;;16.52;10.80;;;6.30;99.90;;;;;;5037178;28;20029;-76
2023/10/18 03:07:37;;;;;;;18.83;11.32;;;6.30;99.90;;;;;;5053404;28;20109;-76
2023/10/18 03:10:13;;;;;;;18.48;10.13;;;6.30;99.90;;;;;;5046106;28;20392;-77
2023/10/18 03:12:38;;;;;;;15.55;9.93;;;6.30;99.90;;;;;;5060955;28;20128;-76
2023/10/18 03:15:17;;;;;;;16.83;10.25;;;6.40;99.90;;;;;;5072730;28;20438;-76
2023/10/18 03:17:50;;;;;;;16.65;10.65;;;6.30;99.90;;;;;;5086111;28;20137;-76
2023/10/18 03:20:26;;;;;;;18.65;10.25;;;6.30;99.90;;;;;;5057155;28;20048;-76
2023/10/18 03:22:52;;;;;;;23.98;12.23;;;6.30;99.90;;;;;;5039806;28;20040;-76
2023/10/18 03:25:27;;;;;;;16.15;10.60;;;6.30;99.90;;;;;;5056140;28;20051;-76
2023/10/18 03:27:57;;;;;;;20.15;11.52;;;6.30;99.90;;;;;;5055809;28;20543;-76
2023/10/18 03:30:39;;;;;;;19.08;10.98;;;6.20;99.90;;;;;;5056187;28;20048;-76
2023/10/18 03:33:07;;;;;;;19.13;11.60;;;6.20;99.90;;;;;;5073261;28;20126;-76
2023/10/18 03:35:38;;;;;;;18.58;12.10;;;6.20;99.90;;;;;;5039947;28;20625;-76
2023/10/18 03:38:18;;;;;;;19.73;12.45;;;6.20;99.90;;;;;;5040547;28;20061;-76
2023/10/18 03:40:48;;;;;;;15.10;9.45;;;6.20;99.90;;;;;;5052440;28;20053;-76
2023/10/18 03:43:16;;;;;;;20.30;12.88;;;6.20;99.90;;;;;;5030171;28;20075;-77
2023/10/18 03:48:40;;;;;;;20.17;11.93;;;6.10;99.90;;;;;;5039844;28;20071;-75
2023/10/18 03:51:06;;;;;;;21.20;11.70;;;6.10;99.90;;;;;;5063172;28;20403;-77
2023/10/18 03:53:32;;;;;;;19.55;12.50;;;6.10;99.90;;;;;;5062916;28;20044;-77
2023/10/18 03:55:58;;;;;;;22.63;12.00;;;6.10;99.90;;;;;;5059311;28;20518;-76
2023/10/18 03:58:24;;;;;;;21.15;12.80;;;6.00;99.90;;;;;;5063089;28;20051;-76
2023/10/18 04:00:56;;;;;;;22.55;13.05;;;6.00;99.90;;;;;;5061624;28;20483;-77
2023/10/18 04:03:29;;;;;;;19.90;11.45;;;6.00;99.90;;;;;;5062776;28;20037;-76
2023/10/18 04:05:56;;;;;;;18.65;11.80;;;6.00;99.90;;;;;;5062455;28;20530;-76
2023/10/18 04:08:22;;;;;;;22.10;12.85;;;6.00;99.90;;;;;;5043449;28;20052;-77
2023/10/18 04:10:58;;;;;;;20.33;11.32;;;6.00;99.90;;;;;;5032422;28;20125;-76
2023/10/18 04:13:36;;;;;;;20.67;12.18;;;5.90;99.90;;;;;;5043005;28;20483;-79
2023/10/18 04:16:11;;;;;;;20.55;12.32;;;5.90;99.90;;;;;;5045694;28;20040;-76
2023/10/18 04:18:37;;;;;;;20.73;12.65;;;5.90;99.90;;;;;;5046008;28;20415;-77
2023/10/18 04:21:05;;;;;;;19.20;11.65;;;5.90;99.90;;;;;;5066066;28;20050;-76
2023/10/18 04:23:34;;;;;;;20.77;11.98;;;5.80;99.90;;;;;;5059403;28;20048;-76
2023/10/18 04:28:30;;;;;;;18.35;11.30;;;5.80;99.90;;;;;;5063230;28;20056;-77
2023/10/18 04:31:04;;;;;;;21.92;12.52;;;5.80;99.90;;;;;;5062774;28;20138;-76
2023/10/18 04:36:15;;;;;;;20.50;12.10;;;5.80;99.90;;;;;;5056899;28;20060;-77
2023/10/18 04:38:44;;;;;;;23.05;12.60;;;5.80;99.90;;;;;;5039732;28;20064;-76
2023/10/18 04:41:23;;;;;;;23.25;14.10;;;5.70;99.90;;;;;;5062857;28;20059;-78
2023/10/18 04:44:05;;;;;;;21.67;13.45;;;5.70;99.90;;;;;;5045514;28;20127;-76
2023/10/18 04:46:35;;;;;;;22.30;13.30;;;5.70;99.90;;;;;;5063072;28;20048;-79
2023/10/18 04:54:11;;;;;;;26.05;14.95;;;5.70;99.90;;;;;;5061274;28;20135;-76
2023/10/18 04:56:46;;;;;;;20.60;13.38;;;5.70;99.90;;;;;;5060755;28;20379;-76
2023/10/18 05:04:21;;;;;;;21.48;13.45;;;5.70;99.90;;;;;;5063061;28;20057;-78
2023/10/18 05:06:56;;;;;;;26.08;15.50;;;5.60;99.90;;;;;;5062866;28;20048;-77
2023/10/18 05:09:30;;;;;;;24.42;13.77;;;5.70;99.90;;;;;;5060073;28;20040;-78
2023/10/18 05:12:03;;;;;;;24.38;14.45;;;5.60;99.90;;;;;;5060719;28;20110;-78
2023/10/18 05:14:35;;;;;;;24.73;16.25;;;5.60;99.90;;;;;;5060252;28;20118;-76
2023/10/18 05:17:10;;;;;;;27.02;15.32;;;5.60;99.90;;;;;;5059599;28;20469;-76
2023/10/18 05:19:41;;;;;;;23.73;15.13;;;5.60;99.90;;;;;;5061780;28;20049;-78
2023/10/18 05:22:17;;;;;;;24.48;14.25;;;5.60;99.90;;;;;;5045305;28;20102;-76
2023/10/18 05:24:46;;;;;;;25.98;15.65;;;5.60;99.90;;;;;;5045782;28;20472;-75
2023/10/18 05:27:24;;;;;;;21.77;13.93;;;5.60;99.90;;;;;;5061374;28;20041;-77
2023/10/18 05:29:59;;;;;;;23.10;13.80;;;5.60;99.90;;;;;;5061131;28;20455;-77
2023/10/18 05:35:45;;;;;;;26.60;15.98;;;5.60;99.90;;;;;;5063480;28;20045;-77
2023/10/18 05:37:58;;;;;;;27.13;15.68;;;5.60;99.90;;;;;;5048415;28;20068;-77
2023/10/18 05:43:12;;;;;;;24.77;15.02;;;5.50;99.90;;;;;;5043005;28;20074;-79
2023/10/18 05:45:40;;;;;;;24.73;15.10;;;5.50;99.90;;;;;;5062472;28;20079;-78
2023/10/18 05:48:13;;;;;;;26.05;14.50;;;5.50;99.90;;;;;;5066262;28;20570;-79
2023/10/18 05:50:39;;;;;;;24.13;14.55;;;5.50;99.90;;;;;;5059569;28;20126;-78
2023/10/18 05:53:12;;;;;;;24.33;15.05;;;5.50;99.90;;;;;;5062339;28;20044;-78
2023/10/18 05:55:38;;;;;;;26.25;15.02;;;5.50;99.90;;;;;;5064591;28;20049;-79
2023/10/18 05:58:05;;;;;;;27.25;16.85;;;5.50;99.90;;;;;;5046608;28;20076;-78
2023/10/18 06:00:38;;;;;;;22.40;14.40;;;5.50;99.90;;;;;;5040682;28;20080;-81
2023/10/18 06:03:04;;;;;;;23.67;14.45;;;5.50;99.90;;;;;;5047031;28;20044;-80
2023/10/18 06:05:35;;;;;;;26.73;15.18;;;5.50;99.90;;;;;;5028827;28;20520;-79
2023/10/18 06:08:01;;;;;;;27.23;16.30;;;5.50;99.90;;;;;;5045544;28;20049;-81
2023/10/18 06:10:27;;;;;;;27.20;15.38;;;5.50;99.90;;;;;;5042886;28;20139;-80
2023/10/18 06:13:20;;;;;;;24.88;15.65;;;5.50;99.90;;;;;;5047035;28;20064;-80
2023/10/18 06:15:50;;;;;;;25.95;15.40;;;5.50;99.90;;;;;;5047274;28;20226;-78
2023/10/18 06:18:17;;;;;;;29.98;17.00;;;5.50;99.90;;;;;;5046586;28;20059;-81
2023/10/18 06:20:44;;;;;;;26.55;16.17;;;5.50;99.90;;;;;;5049987;28;20068;-81
2023/10/18 06:25:49;;;;;;;28.45;16.65;;;5.40;99.90;;;;;;5058403;28;20140;-82
2023/10/18 06:28:21;;;;;;;29.35;16.45;;;5.50;99.90;;;;;;5044234;28;20127;-80
2023/10/18 06:30:53;;;;;;;29.17;16.88;;;5.40;99.90;;;;;;5042927;28;20045;-82
2023/10/18 06:33:20;;;;;;;30.92;16.55;;;5.40;99.90;;;;;;5023647;28;20502;-80
2023/10/18 06:35:52;;;;;;;24.10;14.90;;;5.50;99.90;;;;;;5045108;28;20049;-80
2023/10/18 06:38:24;;;;;;;29.58;16.63;;;5.50;99.90;;;;;;5044800;28;20098;-81
2023/10/18 06:43:18;;;;;;;27.65;18.08;;;5.50;99.90;;;;;;5054084;28;20411;-82
2023/10/18 06:45:43;;;;;;;27.00;15.55;;;5.50;99.90;;;;;;5049090;28;20048;-81
2023/10/18 06:48:09;;;;;;;26.67;15.85;;;5.70;99.90;;;;;;5054856;28;20048;-79
2023/10/18 06:50:35;;;;;;;24.65;15.13;;;6.60;99.90;;;;;;5064621;28;20480;-82
2023/10/18 06:53:05;;;;;;;30.08;18.00;;;5.50;99.90;;;;;;5063071;28;20056;-76
2023/10/18 06:58:15;;;;;;;29.13;16.23;;;5.60;99.90;;;;;;5066009;28;20070;-77
2023/10/18 07:00:46;;;;;;;28.80;15.38;;;5.60;99.90;;;;;;5047791;28;21104;-76
2023/10/18 07:03:16;;;;;;;30.05;16.75;;;5.60;99.90;;;;;;5044830;28;20041;-77
2023/10/18 07:05:55;;;;;;;26.13;16.17;;;5.60;99.90;;;;;;5044799;28;20045;-80
2023/10/18 07:08:29;;;;;;;27.65;15.82;;;5.60;99.90;;;;;;5055721;28;20132;-77
2023/10/18 07:10:55;;;;;;;;;;;5.60;99.90;;;;;;5047217;28;20060;-77
2023/10/18 07:13:36;;;;;;;28.80;16.23;;;5.70;99.90;;;;;;5047435;28;19947;-78
2023/10/18 07:16:12;;;;;;;29.00;15.93;;;5.60;99.90;;;;;;5052235;28;20041;-77
2023/10/18 07:18:38;;;;;;;27.70;16.27;;;5.70;99.90;;;;;;5054458;28;20047;-77
2023/10/18 07:21:09;;;;;;;24.83;15.85;;;5.80;99.90;;;;;;5052379;28;20048;-77
2023/10/18 07:23:39;;;;;;;25.20;16.02;;;5.70;99.90;;;;;;5040789;28;20472;-79
2023/10/18 07:26:16;;;;;;;27.05;15.77;;;5.70;99.90;;;;;;5057922;28;20135;-75
2023/10/18 07:28:44;;;;;;;28.60;16.27;;;5.70;99.90;;;;;;5066916;28;20048;-77
2023/10/18 07:31:10;;;;;;;29.55;16.33;;;5.80;99.90;;;;;;5056806;28;20119;-77
2023/10/18 07:33:50;;;;;;;27.10;16.13;;;5.80;99.90;;;;;;5060071;28;20112;-77
2023/10/18 07:36:18;;;;;;;28.17;16.00;;;5.80;99.90;;;;;;5038708;28;20081;-79
2023/10/18 07:38:47;;;;;;;27.73;15.90;;;5.90;99.90;;;;;;5041956;28;20096;-77
2023/10/18 07:41:18;;;;;;;33.22;17.75;;;5.90;99.90;;;;;;5042728;28;20053;-77
2023/10/18 07:43:44;;;;;;;24.60;15.65;;;5.90;99.90;;;;;;5045038;28;20053;-80
2023/10/18 07:46:16;;;;;;;31.33;16.63;;;5.90;99.90;;;;;;5043246;28;20079;-83
2023/10/18 07:48:48;;;;;;;26.95;16.95;;;5.90;99.90;;;;;;5054420;28;20084;-80
2023/10/18 07:51:23;;;;;;;27.95;16.25;;;6.00;99.90;;;;;;5040609;28;20133;-79
2023/10/18 07:53:55;;;;;;;26.92;15.40;;;6.00;99.90;;;;;;5058184;28;20067;-80
2023/10/18 07:56:27;;;;;;;26.52;15.15;;;6.00;99.90;;;;;;5041714;28;20041;-80
2023/10/18 07:59:27;;;;;;;24.65;14.80;;;6.10;99.90;;;;;;5053855;28;20036;-81
2023/10/18 08:01:51;;;;;;;26.35;14.75;;;6.10;99.90;;;;;;5056855;28;20500;-88
2023/10/18 08:04:20;;;;;;;25.13;14.70;;;6.10;99.90;;;;;;5063146;28;20088;-86
2023/10/18 08:06:50;;;;;;;25.33;15.10;;;6.20;99.90;;;;;;5064050;28;20110;-77
2023/10/18 08:09:28;;;;;;;24.92;14.73;;;6.20;99.90;;;;;;5060570;28;20090;-84
2023/10/18 08:11:55;;;;;;;25.95;15.32;;;6.20;99.90;;;;;;5060527;28;20059;-82
2023/10/18 08:14:24;;;;;;;29.15;16.33;;;6.30;99.90;;;;;;5041150;28;20052;-81
2023/10/18 08:16:56;;;;;;;24.60;14.75;;;6.30;99.90;;;;;;5042237;28;20134;-81
2023/10/18 08:19:25;;;;;;;24.77;14.88;;;6.30;99.90;;;;;;5038782;28;20052;-81
2023/10/18 08:24:49;;;;;;;23.08;14.77;;;6.60;99.90;;;;;;5015596;28;20092;-81
2023/10/18 08:27:15;;;;;;;25.25;15.63;;;6.50;99.90;;;;;;5043623;28;20068;-81
2023/10/18 08:29:41;;;;;;;24.67;14.82;;;6.50;99.90;;;;;;5048946;28;20040;-82
2023/10/18 08:32:17;;;;;;;25.70;14.15;;;6.60;99.90;;;;;;5045044;28;20059;-80
2023/10/18 08:34:48;;;;;;;25.27;14.82;;;6.60;99.90;;;;;;5043446;28;20102;-81
2023/10/18 08:37:14;;;;;;;25.63;15.15;;;6.70;99.90;;;;;;5048920;28;20068;-81
2023/10/18 08:39:52;;;;;;;22.70;14.43;;;7.40;99.90;;;;;;5041387;28;20488;-79
2023/10/18 08:42:24;;;;;;;23.88;13.20;;;6.80;99.90;;;;;;5056029;28;20120;-80
2023/10/18 08:45:03;;;;;;;25.48;14.40;;;6.80;99.90;;;;;;5044472;28;20045;-79
2023/10/18 08:47:35;;;;;;;22.88;13.98;;;6.90;99.90;;;;;;5054987;28;20526;-79
2023/10/18 08:50:01;;;;;;;21.42;14.23;;;6.90;99.90;;;;;;5043889;28;20044;-79
2023/10/18 08:52:35;;;;;;;22.75;14.30;;;7.00;99.90;;;;;;5060151;28;20163;-80
2023/10/18 08:55:19;;;;;;;22.90;15.05;;;7.10;99.90;;;;;;5047652;28;20079;-79
2023/10/18 08:57:46;;;;;;;25.95;13.80;;;7.10;99.90;;;;;;5043827;28;20129;-79
2023/10/18 09:02:53;;;;;;;24.13;14.13;;;7.20;99.90;;;;;;5060549;28;20095;-81
2023/10/18 09:05:22;;;;;;;23.85;14.73;;;7.30;99.90;;;;;;5048141;28;20145;-80
2023/10/18 09:07:55;;;;;;;22.95;13.93;;;7.30;99.90;;;;;;5056950;28;20045;-80
2023/10/18 09:10:33;;;;;;;22.35;13.40;;;7.40;99.90;;;;;;5044389;28;20501;-79
2023/10/18 09:15:54;;;;;;;21.40;14.38;;;7.50;99.90;;;;;;5042242;28;20053;-81
2023/10/18 09:18:24;;;;;;;20.88;13.93;;;7.50;99.90;;;;;;5048309;28;20052;-80
2023/10/18 09:20:51;;;;;;;23.90;14.30;;;7.60;99.90;;;;;;5046573;28;20130;-79
2023/10/18 09:23:21;;;;;;;21.25;13.50;;;7.60;99.90;;;;;;5046229;28;20131;-79
2023/10/18 09:26:00;;;;;;;17.38;12.07;;;7.70;99.90;;;;;;5047357;28;20045;-79
2023/10/18 09:28:28;;;;;;;19.45;12.48;;;7.80;99.90;;;;;;5048871;28;20052;-80
2023/10/18 09:31:00;;;;;;;19.65;13.05;;;7.80;99.90;;;;;;5061073;28;20048;-79
2023/10/18 09:33:38;;;;;;;20.77;12.40;;;8.00;99.90;;;;;;5042255;28;20052;-80
2023/10/18 09:36:19;;;;;;;19.25;12.05;;;8.00;99.90;;;;;;5063380;28;20051;-79
2023/10/18 09:38:47;;;;;;;21.52;12.07;;;8.10;99.90;;;;;;5059895;28;20060;-80
2023/10/18 09:41:13;;;;;;;19.35;12.95;;;8.20;99.90;;;;;;5052976;28;20045;-79
2023/10/18 09:43:38;;;;;;;21.85;12.52;;;8.20;99.90;;;;;;5049651;28;20056;-80
2023/10/18 09:46:08;;;;;;;18.20;11.63;;;8.30;99.90;;;;;;5048224;28;20045;-79
2023/10/18 09:48:38;;;;;;;20.38;12.88;;;8.40;99.90;;;;;;5045975;28;20048;-80
2023/10/18 09:51:08;;;;;;;20.35;11.70;;;8.50;99.90;;;;;;5068936;28;20049;-80
2023/10/18 09:53:42;;;;;;;19.90;11.70;;;8.50;99.90;;;;;;5046050;28;20040;-80
2023/10/18 09:56:12;;;;;;;18.38;11.90;;;8.60;99.90;;;;;;5044965;28;20049;-79
2023/10/18 09:58:43;;;;;;;19.73;11.63;;;8.60;99.90;;;;;;5045475;28;20040;-79
2023/10/18 10:04:01;;;;;;;18.08;11.45;;;8.70;99.90;;;;;;5064741;28;20071;-80
2023/10/18 10:06:28;;;;;;;21.38;11.88;;;8.80;99.90;;;;;;5044531;28;20057;-80
2023/10/18 10:09:08;;;;;;;18.58;11.82;;;8.80;99.90;;;;;;5047226;28;20033;-79
2023/10/18 10:11:36;;;;;;;17.50;11.55;;;8.80;99.90;;;;;;5057512;28;20082;-81
2023/10/18 10:14:07;;;;;;;17.50;10.70;;;8.90;99.90;;;;;;5063763;28;20048;-81
2023/10/18 10:16:34;;;;;;;16.02;11.38;;;8.90;99.90;;;;;;5051483;28;20043;-81
2023/10/18 10:19:05;;;;;;;18.95;11.32;;;9.00;99.90;;;;;;5057312;28;20071;-80
2023/10/18 10:21:34;;;;;;;16.42;11.00;;;9.00;99.90;;;;;;5060742;28;20123;-79
2023/10/18 10:24:07;;;;;;;18.38;11.82;;;9.10;99.90;;;;;;5065388;28;20044;-80
2023/10/18 10:26:35;;;;;;;18.83;11.40;;;9.20;99.90;;;;;;5056020;28;20422;-80
2023/10/18 10:31:51;;;;;;;17.50;10.60;;;9.20;99.90;;;;;;5046255;28;20052;-79
2023/10/18 10:34:41;;;;;;;17.50;11.43;;;9.30;99.90;;;;;;5063555;28;20055;-79
2023/10/18 10:37:18;;;;;;;19.00;11.05;;;9.40;99.90;;;;;;5076285;28;20055;-80
2023/10/18 10:39:45;;;;;;;16.50;10.77;;;9.60;99.90;;;;;;5070928;28;20190;-80
2023/10/18 10:42:46;;;;;;;16.85;11.25;;;9.50;99.90;;;;;;5056749;28;20049;-79
2023/10/18 10:51:06;;;;;;;18.35;11.00;;;9.80;99.90;;;;;;5057623;28;20086;-81
2023/10/18 10:53:44;;;;;;;18.80;11.45;;;9.80;99.90;;;;;;5056567;28;20052;-80
2023/10/18 10:56:17;;;;;;;16.38;9.40;;;9.80;99.90;;;;;;5058266;28;20044;-79
2023/10/18 11:01:39;;;;;;;17.90;10.38;;;9.90;99.90;;;;;;5059402;28;20048;-80
2023/10/18 11:04:25;;;;;;;16.63;10.15;;;9.90;99.90;;;;;;5047211;28;20090;-80
2023/10/18 11:07:03;;;;;;;15.60;10.02;;;10.00;99.90;;;;;;5044084;28;20839;-78
2023/10/18 11:09:33;;;;;;;14.68;9.65;;;10.00;99.90;;;;;;5050626;28;20526;-80
2023/10/18 11:12:03;;;;;;;15.73;10.23;;;10.10;99.90;;;;;;5040412;28;20098;-79
2023/10/18 11:14:30;;;;;;;15.52;9.25;;;10.10;99.90;;;;;;5044640;28;20055;-85
2023/10/18 11:19:51;;;;;;;15.10;10.40;;;10.20;99.90;;;;;;5044308;28;20107;-80
2023/10/18 11:22:21;;;;;;;12.80;9.02;;;10.30;99.90;;;;;;5066192;28;20045;-82
2023/10/18 11:24:51;;;;;;;16.38;9.48;;;10.40;99.90;;;;;;5057995;28;20052;-82
2023/10/18 11:27:25;;;;;;;15.10;9.55;;;10.50;99.90;;;;;;5056211;28;20496;-81
2023/10/18 11:29:55;;;;;;;14.07;9.38;;;10.50;99.90;;;;;;5048249;28;20068;-81
2023/10/18 11:32:27;;;;;;;15.15;9.77;;;10.60;99.90;;;;;;5055511;28;20533;-81
2023/10/18 11:35:08;;;;;;;14.45;9.50;;;10.60;99.90;;;;;;5047951;28;20055;-80
2023/10/18 11:37:36;;;;;;;13.30;8.85;;;10.70;99.90;;;;;;5040508;28;20092;-82
2023/10/18 11:40:40;;;;;;;14.63;9.05;;;10.70;99.90;;;;;;5044577;28;20060;-81
2023/10/18 11:43:10;;;;;;;14.57;7.97;;;10.80;99.90;;;;;;5036584;28;20052;-82
2023/10/18 11:45:38;;;;;;;15.13;8.98;;;10.80;99.90;;;;;;5052277;28;20045;-82
2023/10/18 11:48:09;;;;;;;13.80;8.23;;;10.90;99.90;;;;;;5044815;28;20064;-81
2023/10/18 11:50:39;;;;;;;14.13;8.65;;;10.90;99.90;;;;;;5040451;28;20049;-81
2023/10/18 11:53:12;;;;;;;14.38;8.63;;;10.90;99.90;;;;;;5055725;28;20079;-80
2023/10/18 11:55:58;;;;;;;14.23;8.60;;;11.00;99.90;;;;;;5055939;28;20476;-81
2023/10/18 11:58:32;;;;;;;17.67;9.73;;;11.00;99.90;;;;;;5051396;28;20124;-82
2023/10/18 12:01:00;;;;;;;15.10;9.07;;;11.10;99.90;;;;;;5044743;28;20399;-82
2023/10/18 12:03:29;;;;;;;13.30;8.13;;;11.10;99.90;;;;;;5060508;28;20124;-82
2023/10/18 12:05:56;;;;;;;14.43;9.45;;;11.20;99.90;;;;;;5062399;28;20048;-82
2023/10/18 12:08:23;;;;;;;14.02;8.80;;;11.20;99.90;;;;;;5046092;28;20404;-81
2023/10/18 12:10:49;;;;;;;12.77;8.20;;;11.20;99.90;;;;;;5060686;28;20052;-80
2023/10/18 12:13:17;;;;;;;14.27;8.57;;;11.30;99.90;;;;;;5071779;28;20051;-81
2023/10/18 12:15:43;;;;;;;15.00;9.00;;;11.30;99.90;;;;;;5070504;28;20725;-79
2023/10/18 12:18:09;;;;;;;14.30;8.68;;;11.40;99.90;;;;;;5052119;28;20087;-76
2023/10/18 12:20:36;;;;;;;14.98;8.00;;;11.40;99.90;;;;;;5065041;28;20077;-76
2023/10/18 12:23:18;;;;;;;12.70;7.38;;;11.50;99.90;;;;;;5058339;28;20056;-76
2023/10/18 12:25:45;;;;;;;11.10;7.35;;;11.50;99.90;;;;;;5053734;28;20048;-76
2023/10/18 12:28:17;;;;;;;14.40;7.50;;;11.50;99.90;;;;;;5054384;28;20063;-76
2023/10/18 12:30:44;;;;;;;11.43;6.93;;;11.50;99.90;;;;;;5055977;28;20177;-76
2023/10/18 12:34:15;;;;;;;15.88;8.27;;;11.60;99.90;;;;;;5072340;28;20040;-76
2023/10/18 12:36:07;;;;;;;12.30;7.40;;;11.60;99.90;;;;;;5036630;28;20131;-76
2023/10/18 12:38:38;;;;;;;17.63;8.15;;;11.70;99.90;;;;;;5053555;28;20063;-76
2023/10/18 12:41:18;;;;;;;11.75;7.20;;;11.70;99.90;;;;;;5085212;28;20060;-76
2023/10/18 12:43:47;;;;;;;13.07;6.70;;;11.80;99.90;;;;;;5055773;28;20047;-77
2023/10/18 12:46:17;;;;;;;15.80;7.30;;;11.80;99.90;;;;;;5057066;28;20045;-78
2023/10/18 12:48:43;;;;;;;11.75;6.53;;;11.80;99.90;;;;;;5057503;28;20044;-78
2023/10/18 12:51:12;;;;;;;13.50;7.65;;;11.80;99.90;;;;;;5051083;28;20052;-79
2023/10/18 12:53:43;;;;;;;12.15;6.60;;;11.90;99.90;;;;;;5032085;28;20127;-79
2023/10/18 12:59:12;;;;;;;12.45;6.72;;;11.90;99.90;;;;;;5059937;28;20144;-78
2023/10/18 13:04:07;;;;;;;14.30;7.25;;;11.80;99.90;;;;;;5059395;28;20131;-78
2023/10/18 13:06:44;;;;;;;12.00;6.88;;;11.80;99.90;;;;;;5061656;28;20049;-78
2023/10/18 13:09:19;;;;;;;15.38;8.80;;;11.80;99.90;;;;;;5054780;28;20055;-78
2023/10/18 13:14:29;;;;;;;15.02;7.75;;;11.90;99.90;;;;;;5067161;28;20087;-78
2023/10/18 13:16:56;;;;;;;11.70;7.50;;;11.90;99.90;;;;;;5058339;28;20135;-78
2023/10/18 13:19:24;;;;;;;11.98;7.70;;;11.90;99.90;;;;;;5057398;28;20060;-78
2023/10/18 13:21:50;;;;;;;13.35;7.82;;;11.90;99.90;;;;;;5057777;28;20448;-78
2023/10/18 13:26:49;;;;;;;13.65;7.43;;;11.90;99.90;;;;;;5057610;28;20060;-78
2023/10/18 13:31:52;;;;;;;13.68;7.85;;;11.90;99.90;;;;;;5057740;28;20067;-79
2023/10/18 13:34:18;;;;;;;14.40;7.45;;;12.00;99.90;;;;;;5054767;28;20041;-78
2023/10/18 13:36:54;;;;;;;12.18;7.22;;;12.00;99.90;;;;;;5070822;28;20052;-78
2023/10/18 13:39:23;;;;;;;18.13;7.80;;;12.10;99.90;;;;;;5064481;28;20059;-78
2023/10/18 13:41:49;;;;;;;12.43;7.65;;;12.10;99.90;;;;;;5058885;28;20052;-78
2023/10/18 13:44:20;;;;;;;11.10;6.80;;;12.20;99.90;;;;;;5061025;28;20492;-78
2023/10/18 13:46:57;;;;;;;13.45;7.30;;;12.30;99.90;;;;;;5050881;28;20040;-78
2023/10/18 13:49:26;;;;;;;13.63;7.45;;;12.40;99.90;;;;;;5054239;28;20119;-78
2023/10/18 13:51:55;;;;;;;13.20;7.07;;;12.60;99.90;;;;;;5047642;28;20570;-78
2023/10/18 13:54:20;;;;;;;13.05;7.60;;;12.70;99.90;;;;;;5050575;28;20051;-78
2023/10/18 13:56:48;;;;;;;16.23;7.97;;;12.80;99.90;;;;;;5073832;28;20044;-78
2023/10/18 13:59:14;;;;;;;12.95;7.35;;;12.80;99.90;;;;;;5057291;28;20377;-79
2023/10/18 14:01:41;;;;;;;12.60;7.43;;;12.80;99.90;;;;;;5043153;28;20041;-78
2023/10/18 14:04:08;;;;;;;12.40;7.07;;;12.80;99.90;;;;;;5054123;28;20427;-78
2023/10/18 14:06:34;;;;;;;12.65;7.00;;;12.80;99.90;;;;;;5066418;28;20061;-78
2023/10/18 14:09:04;;;;;;;12.00;6.75;;;12.70;99.90;;;;;;5060905;28;20110;-78
2023/10/18 14:11:33;;;;;;;11.98;6.45;;;12.60;99.90;;;;;;5068027;28;20400;-78